Terminal Aerodrome Forecast
Issued by NWS

Home | Current Version | Previous Version | Text Only | Print | Product List | Glossary On
Versions: 1 2 3 4 5 6 7 8 9 10 11 12 13 14 15 16 17 18 19 20
634
FTUS43 KMPX 041720
TAFRNH
TAF
KRNH 041720Z 0418/0518 20005KT 3SM -SN BR OVC020
      TEMPO 0418/0421 1SM -SN BR OVC008
     FM042100 28006KT P6SM OVC020
     FM050200 27003KT P6SM FEW025
     FM050700 29003KT P6SM BKN250
     FM051200 18003KT P6SM BKN100=

USA.gov is the U.S. government's official web portal to all federal, state and local government web resources and services.